AFL2608 URKK-UUEE
Flight info
| Callsign | AFL2608 |
|---|---|
| Flight time | 2h 33m |
| Altitude | 35000 |
| Route | KURAD6V KURAD W93 NINOR W54 LARIN DCT OBABI T619 UMRAL P163 GOLRI L736 OLOPI OLOPI3W |
| Aircraft | B738/M-SDE2E3FGHIRWXY/LB1 |
Departure
| Time | 2026-05-07 17:25 |
|---|---|
| Airport | Krasnodar Pashkovsky International Airport (URKK) |
Arrival
| Time | 2026-05-07 19:59 |
|---|---|
| Airport | Sheremetyevo International Airport (UUEE) |
| Time | Latitude | Longitude | Altitude | Speed | Heading |
|---|---|---|---|---|---|
| 2026-05-07 16:53 | 45.03575 | 39.18333 | 114 ft | 0 kts | 323° |
| 2026-05-07 17:18 | 45.03589 | 39.18313 | 114 ft | 4 kts | 298° |
| 2026-05-07 17:18 | 45.03579 | 39.18263 | 114 ft | 5 kts | 212° |
| 2026-05-07 17:18 | 45.03541 | 39.18274 | 114 ft | 7 kts | 144° |
| 2026-05-07 17:18 | 45.03536 | 39.18280 | 114 ft | 0 kts | 142° |
| 2026-05-07 17:19 | 45.03535 | 39.18281 | 114 ft | 1 kts | 142° |
| 2026-05-07 17:19 | 45.03527 | 39.18290 | 114 ft | 0 kts | 141° |
| 2026-05-07 17:19 | 45.03507 | 39.18306 | 114 ft | 5 kts | 163° |
| 2026-05-07 17:19 | 45.03458 | 39.18305 | 114 ft | 8 kts | 169° |
| 2026-05-07 17:20 | 45.03394 | 39.18335 | 114 ft | 11 kts | 187° |
| 2026-05-07 17:20 | 45.03332 | 39.18257 | 114 ft | 13 kts | 234° |
| 2026-05-07 17:20 | 45.03265 | 39.18131 | 112 ft | 18 kts | 232° |
| 2026-05-07 17:20 | 45.03176 | 39.17965 | 111 ft | 23 kts | 233° |
| 2026-05-07 17:21 | 45.03070 | 39.17768 | 109 ft | 27 kts | 233° |
| 2026-05-07 17:21 | 45.02944 | 39.17538 | 107 ft | 31 kts | 233° |
| 2026-05-07 17:21 | 45.02815 | 39.17297 | 107 ft | 20 kts | 232° |
| 2026-05-07 17:21 | 45.02735 | 39.17198 | 107 ft | 12 kts | 166° |
| 2026-05-07 17:22 | 45.02723 | 39.17206 | 107 ft | 0 kts | 148° |
| 2026-05-07 17:23 | 45.02709 | 39.17219 | 107 ft | 4 kts | 143° |
| 2026-05-07 17:23 | 45.02673 | 39.17258 | 107 ft | 8 kts | 141° |
| 2026-05-07 17:23 | 45.02639 | 39.17339 | 107 ft | 11 kts | 84° |
| 2026-05-07 17:24 | 45.02655 | 39.17387 | 107 ft | 0 kts | 55° |
| 2026-05-07 17:24 | 45.02661 | 39.17401 | 107 ft | 12 kts | 55° |
| 2026-05-07 17:24 | 45.02829 | 39.17686 | 108 ft | 60 kts | 51° |
| 2026-05-07 17:24 | 45.03239 | 39.18464 | 112 ft | 135 kts | 52° |
| 2026-05-07 17:25 | 45.03930 | 39.19768 | 237 ft | 186 kts | 51° |
| 2026-05-07 17:25 | 45.04699 | 39.21201 | 1025 ft | 187 kts | 49° |
| 2026-05-07 17:25 | 45.05527 | 39.22713 | 1422 ft | 205 kts | 50° |
| 2026-05-07 17:25 | 45.06422 | 39.24356 | 1915 ft | 216 kts | 50° |
| 2026-05-07 17:26 | 45.07367 | 39.26103 | 2317 ft | 230 kts | 51° |
| 2026-05-07 17:26 | 45.08367 | 39.27954 | 2754 ft | 243 kts | 51° |
| 2026-05-07 17:26 | 45.09392 | 39.29856 | 3392 ft | 248 kts | 52° |
| 2026-05-07 17:26 | 45.10437 | 39.31886 | 3871 ft | 262 kts | 57° |
| 2026-05-07 17:27 | 45.11309 | 39.34180 | 4448 ft | 269 kts | 64° |
| 2026-05-07 17:27 | 45.12064 | 39.36588 | 5203 ft | 269 kts | 66° |
| 2026-05-07 17:27 | 45.12799 | 39.39006 | 5943 ft | 269 kts | 66° |
| 2026-05-07 17:27 | 45.13545 | 39.41402 | 6662 ft | 270 kts | 65° |
| 2026-05-07 17:28 | 45.14324 | 39.43843 | 7303 ft | 273 kts | 65° |
| 2026-05-07 17:28 | 45.15101 | 39.46254 | 7992 ft | 275 kts | 65° |
| 2026-05-07 17:28 | 45.15898 | 39.48718 | 8662 ft | 276 kts | 65° |
| 2026-05-07 17:28 | 45.16694 | 39.51182 | 9278 ft | 279 kts | 65° |
| 2026-05-07 17:29 | 45.17494 | 39.53666 | 9922 ft | 280 kts | 65° |
| 2026-05-07 17:29 | 45.18303 | 39.56182 | 10453 ft | 286 kts | 64° |
| 2026-05-07 17:29 | 45.19155 | 39.58835 | 10757 ft | 300 kts | 65° |
| 2026-05-07 17:29 | 45.20038 | 39.61587 | 11042 ft | 315 kts | 64° |
| 2026-05-07 17:30 | 45.20859 | 39.64514 | 11273 ft | 330 kts | 72° |
| 2026-05-07 17:30 | 45.21176 | 39.67783 | 11493 ft | 347 kts | 92° |
| 2026-05-07 17:30 | 45.20623 | 39.71164 | 11957 ft | 357 kts | 111° |
| 2026-05-07 17:30 | 45.19586 | 39.74357 | 12453 ft | 363 kts | 114° |
| 2026-05-07 17:31 | 45.18482 | 39.77617 | 12950 ft | 370 kts | 114° |
| 2026-05-07 17:31 | 45.17377 | 39.80913 | 13442 ft | 376 kts | 114° |
| 2026-05-07 17:31 | 45.16256 | 39.84290 | 13939 ft | 383 kts | 113° |
| 2026-05-07 17:31 | 45.15120 | 39.87729 | 14485 ft | 388 kts | 113° |
| 2026-05-07 17:32 | 45.13987 | 39.91162 | 15104 ft | 391 kts | 113° |
| 2026-05-07 17:32 | 45.12826 | 39.94673 | 15733 ft | 394 kts | 113° |
| 2026-05-07 17:32 | 45.11664 | 39.98180 | 16357 ft | 396 kts | 113° |
| 2026-05-07 17:32 | 45.10493 | 40.01704 | 16984 ft | 398 kts | 113° |
| 2026-05-07 17:33 | 45.09327 | 40.05207 | 17605 ft | 400 kts | 112° |
| 2026-05-07 17:33 | 45.08144 | 40.08758 | 18231 ft | 402 kts | 112° |
| 2026-05-07 17:33 | 45.06941 | 40.12363 | 18865 ft | 403 kts | 112° |
| 2026-05-07 17:33 | 45.05754 | 40.15916 | 19496 ft | 404 kts | 112° |
| 2026-05-07 17:34 | 45.04563 | 40.19473 | 20124 ft | 404 kts | 112° |
| 2026-05-07 17:34 | 45.03361 | 40.23061 | 20759 ft | 404 kts | 112° |
| 2026-05-07 17:34 | 45.02160 | 40.26638 | 21401 ft | 404 kts | 112° |
| 2026-05-07 17:34 | 45.00966 | 40.30191 | 22034 ft | 403 kts | 112° |
| 2026-05-07 17:35 | 44.99768 | 40.33749 | 22681 ft | 402 kts | 113° |
| 2026-05-07 17:35 | 44.98571 | 40.37302 | 23327 ft | 400 kts | 112° |
| 2026-05-07 17:35 | 44.97381 | 40.40829 | 23977 ft | 398 kts | 112° |
| 2026-05-07 17:35 | 44.96211 | 40.44293 | 24622 ft | 395 kts | 112° |
| 2026-05-07 17:36 | 44.95036 | 40.47767 | 25282 ft | 392 kts | 112° |
| 2026-05-07 17:36 | 44.93866 | 40.51224 | 25944 ft | 388 kts | 111° |
| 2026-05-07 17:36 | 44.92787 | 40.54619 | 26590 ft | 382 kts | 108° |
| 2026-05-07 17:36 | 44.91922 | 40.58130 | 27254 ft | 375 kts | 102° |
| 2026-05-07 17:37 | 44.91367 | 40.61686 | 27913 ft | 367 kts | 96° |
| 2026-05-07 17:37 | 44.91045 | 40.65165 | 28569 ft | 360 kts | 93° |
| 2026-05-07 17:37 | 44.90828 | 40.68624 | 29228 ft | 353 kts | 92° |
| 2026-05-07 17:37 | 44.90650 | 40.72036 | 29892 ft | 346 kts | 91° |
| 2026-05-07 17:38 | 44.90482 | 40.75391 | 30562 ft | 338 kts | 91° |
| 2026-05-07 17:38 | 44.90314 | 40.78627 | 31230 ft | 329 kts | 91° |
| 2026-05-07 17:38 | 44.90142 | 40.81813 | 31913 ft | 319 kts | 91° |
| 2026-05-07 17:38 | 44.89973 | 40.84877 | 32591 ft | 308 kts | 91° |
| 2026-05-07 17:39 | 44.89807 | 40.87871 | 32727 ft | 312 kts | 91° |
| 2026-05-07 17:39 | 44.89636 | 40.90983 | 32773 ft | 317 kts | 91° |
| 2026-05-07 17:39 | 44.89282 | 40.97271 | 32927 ft | 327 kts | 91° |
| 2026-05-07 17:40 | 44.88905 | 41.03738 | 33056 ft | 337 kts | 91° |
| 2026-05-07 17:40 | 44.88510 | 41.10412 | 33158 ft | 348 kts | 91° |
| 2026-05-07 17:41 | 44.88102 | 41.17314 | 33260 ft | 359 kts | 91° |
| 2026-05-07 17:41 | 44.87683 | 41.24405 | 33375 ft | 370 kts | 91° |
| 2026-05-07 17:42 | 44.87234 | 41.31743 | 33490 ft | 380 kts | 91° |
| 2026-05-07 17:42 | 44.86770 | 41.39237 | 33597 ft | 391 kts | 91° |
| 2026-05-07 17:43 | 44.86286 | 41.46975 | 33699 ft | 403 kts | 92° |
| 2026-05-07 17:43 | 44.86041 | 41.50872 | 34002 ft | 402 kts | 91° |
| 2026-05-07 17:43 | 44.85792 | 41.54798 | 34549 ft | 396 kts | 92° |
| 2026-05-07 17:44 | 44.85552 | 41.58569 | 34952 ft | 390 kts | 92° |
| 2026-05-07 17:44 | 44.85306 | 41.62450 | 34992 ft | 395 kts | 92° |
| 2026-05-07 17:44 | 44.84811 | 41.70159 | 35122 ft | 400 kts | 92° |
| 2026-05-07 17:45 | 44.84300 | 41.78051 | 35135 ft | 409 kts | 92° |
| 2026-05-07 17:45 | 44.83774 | 41.86068 | 35146 ft | 416 kts | 92° |
| 2026-05-07 17:46 | 44.83199 | 41.94185 | 35141 ft | 416 kts | 95° |
| 2026-05-07 17:46 | 44.82165 | 42.02182 | 35146 ft | 419 kts | 98° |
| 2026-05-07 17:47 | 44.80932 | 42.10201 | 35145 ft | 419 kts | 99° |
| 2026-05-07 17:47 | 44.79704 | 42.18189 | 35132 ft | 419 kts | 98° |
| 2026-05-07 17:48 | 44.78487 | 42.26260 | 35159 ft | 422 kts | 98° |
| 2026-05-07 17:48 | 44.77290 | 42.34314 | 35164 ft | 419 kts | 98° |
| 2026-05-07 17:49 | 44.76098 | 42.42285 | 35137 ft | 419 kts | 98° |
| 2026-05-07 17:49 | 44.75164 | 42.50329 | 35135 ft | 415 kts | 83° |
| 2026-05-07 17:50 | 44.75846 | 42.54242 | 35159 ft | 410 kts | 63° |
| 2026-05-07 17:50 | 44.77444 | 42.57518 | 35160 ft | 412 kts | 46° |
| 2026-05-07 17:50 | 44.79655 | 42.60048 | 35141 ft | 413 kts | 33° |
| 2026-05-07 17:50 | 44.82236 | 42.61921 | 35146 ft | 416 kts | 26° |
| 2026-05-07 17:51 | 44.87806 | 42.64339 | 35143 ft | 422 kts | 15° |
| 2026-05-07 17:51 | 44.93578 | 42.65705 | 35145 ft | 420 kts | 13° |
| 2026-05-07 17:52 | 44.99366 | 42.66969 | 35128 ft | 419 kts | 14° |
| 2026-05-07 17:52 | 45.05138 | 42.68346 | 35123 ft | 421 kts | 14° |
| 2026-05-07 17:53 | 45.10873 | 42.69772 | 35119 ft | 420 kts | 14° |
| 2026-05-07 17:53 | 45.16620 | 42.71223 | 35115 ft | 419 kts | 14° |
| 2026-05-07 17:54 | 45.22346 | 42.72676 | 35112 ft | 419 kts | 14° |
| 2026-05-07 17:54 | 45.28056 | 42.74139 | 35109 ft | 418 kts | 14° |
| 2026-05-07 17:55 | 45.33817 | 42.75619 | 35102 ft | 419 kts | 13° |
| 2026-05-07 17:55 | 45.39512 | 42.77081 | 35107 ft | 418 kts | 14° |
| 2026-05-07 17:56 | 45.45237 | 42.78563 | 35100 ft | 418 kts | 13° |
| 2026-05-07 17:56 | 45.50922 | 42.80035 | 35097 ft | 417 kts | 13° |
| 2026-05-07 17:57 | 45.56601 | 42.81514 | 35093 ft | 416 kts | 14° |
| 2026-05-07 17:57 | 45.62327 | 42.83011 | 35094 ft | 419 kts | 13° |
| 2026-05-07 17:58 | 45.68060 | 42.84514 | 35088 ft | 417 kts | 13° |
| 2026-05-07 17:58 | 45.73775 | 42.86010 | 35086 ft | 416 kts | 13° |
| 2026-05-07 17:59 | 45.79429 | 42.87480 | 35086 ft | 416 kts | 13° |
| 2026-05-07 17:59 | 45.85115 | 42.88969 | 35075 ft | 416 kts | 13° |
| 2026-05-07 18:00 | 45.90793 | 42.90465 | 35077 ft | 416 kts | 12° |
| 2026-05-07 18:00 | 45.96479 | 42.91961 | 35075 ft | 417 kts | 13° |
| 2026-05-07 18:01 | 46.02213 | 42.93477 | 35079 ft | 417 kts | 12° |
| 2026-05-07 18:01 | 46.07894 | 42.94980 | 35077 ft | 418 kts | 12° |
| 2026-05-07 18:02 | 46.16465 | 42.97250 | 35083 ft | 418 kts | 12° |
| 2026-05-07 18:03 | 46.22223 | 42.98780 | 35087 ft | 422 kts | 12° |
| 2026-05-07 18:03 | 46.27978 | 43.00317 | 35090 ft | 423 kts | 12° |
| 2026-05-07 18:04 | 46.33785 | 43.01873 | 35084 ft | 422 kts | 12° |
| 2026-05-07 18:04 | 46.39559 | 43.03408 | 35080 ft | 424 kts | 12° |
| 2026-05-07 18:05 | 46.45389 | 43.04962 | 35084 ft | 424 kts | 12° |
| 2026-05-07 18:05 | 46.51171 | 43.06521 | 35077 ft | 425 kts | 12° |
| 2026-05-07 18:06 | 46.57004 | 43.08094 | 35070 ft | 425 kts | 12° |
| 2026-05-07 18:06 | 46.62826 | 43.09667 | 35073 ft | 427 kts | 12° |
| 2026-05-07 18:07 | 46.68662 | 43.11248 | 35062 ft | 428 kts | 12° |
| 2026-05-07 18:07 | 46.74526 | 43.12839 | 35040 ft | 428 kts | 12° |
| 2026-05-07 18:08 | 46.80359 | 43.14427 | 35030 ft | 430 kts | 12° |
| 2026-05-07 18:08 | 46.86245 | 43.16033 | 35030 ft | 428 kts | 12° |
| 2026-05-07 18:09 | 46.92101 | 43.17631 | 35030 ft | 429 kts | 11° |
| 2026-05-07 18:09 | 46.97970 | 43.19238 | 35030 ft | 430 kts | 11° |
| 2026-05-07 18:10 | 47.03885 | 43.20858 | 35028 ft | 432 kts | 11° |
| 2026-05-07 18:10 | 47.09740 | 43.22465 | 35027 ft | 430 kts | 12° |
| 2026-05-07 18:11 | 47.15632 | 43.24089 | 35020 ft | 431 kts | 11° |
| 2026-05-07 18:11 | 47.21479 | 43.25705 | 35021 ft | 428 kts | 11° |
| 2026-05-07 18:12 | 47.27306 | 43.27317 | 35019 ft | 427 kts | 11° |
| 2026-05-07 18:12 | 47.33152 | 43.28938 | 35014 ft | 428 kts | 11° |
| 2026-05-07 18:13 | 47.39019 | 43.30568 | 35016 ft | 428 kts | 11° |
| 2026-05-07 18:13 | 47.44822 | 43.32173 | 35014 ft | 427 kts | 11° |
| 2026-05-07 18:14 | 47.50693 | 43.33809 | 35012 ft | 427 kts | 11° |
| 2026-05-07 18:14 | 47.56509 | 43.35439 | 35005 ft | 425 kts | 11° |
| 2026-05-07 18:15 | 47.62321 | 43.37070 | 35009 ft | 425 kts | 11° |
| 2026-05-07 18:15 | 47.68152 | 43.38705 | 35011 ft | 425 kts | 11° |
| 2026-05-07 18:15 | 47.71075 | 43.39102 | 35004 ft | 425 kts | 358° |
| 2026-05-07 18:16 | 47.74041 | 43.38630 | 35009 ft | 428 kts | 352° |
| 2026-05-07 18:16 | 47.79863 | 43.36861 | 35008 ft | 427 kts | 349° |
| 2026-05-07 18:17 | 47.85704 | 43.34934 | 35004 ft | 427 kts | 349° |
| 2026-05-07 18:17 | 47.91524 | 43.33145 | 35008 ft | 427 kts | 350° |
| 2026-05-07 18:18 | 47.97317 | 43.31458 | 35016 ft | 427 kts | 351° |
| 2026-05-07 18:18 | 48.03161 | 43.29792 | 35014 ft | 425 kts | 351° |
| 2026-05-07 18:19 | 48.08960 | 43.28153 | 35012 ft | 427 kts | 351° |
| 2026-05-07 18:19 | 48.14809 | 43.26503 | 35014 ft | 426 kts | 350° |
| 2026-05-07 18:20 | 48.20615 | 43.24854 | 35007 ft | 427 kts | 350° |
| 2026-05-07 18:20 | 48.26440 | 43.23196 | 35008 ft | 427 kts | 350° |
| 2026-05-07 18:21 | 48.32269 | 43.21534 | 35010 ft | 427 kts | 350° |
| 2026-05-07 18:21 | 48.38109 | 43.19865 | 35014 ft | 428 kts | 350° |
| 2026-05-07 18:22 | 48.43952 | 43.18193 | 35004 ft | 431 kts | 349° |
| 2026-05-07 18:22 | 48.49836 | 43.16505 | 35014 ft | 430 kts | 349° |
| 2026-05-07 18:23 | 48.55721 | 43.14809 | 35010 ft | 431 kts | 349° |
| 2026-05-07 18:23 | 48.61595 | 43.13113 | 35008 ft | 430 kts | 349° |
| 2026-05-07 18:24 | 48.67479 | 43.11410 | 35003 ft | 430 kts | 349° |
| 2026-05-07 18:24 | 48.73349 | 43.09706 | 35014 ft | 435 kts | 349° |
| 2026-05-07 18:25 | 48.79351 | 43.07962 | 35009 ft | 444 kts | 348° |
| 2026-05-07 18:25 | 48.85488 | 43.06172 | 34998 ft | 450 kts | 348° |
| 2026-05-07 18:26 | 48.91639 | 43.04374 | 35014 ft | 452 kts | 348° |
| 2026-05-07 18:26 | 48.97779 | 43.02576 | 34997 ft | 452 kts | 348° |
| 2026-05-07 18:27 | 49.03992 | 43.00754 | 35009 ft | 454 kts | 348° |
| 2026-05-07 18:27 | 49.10185 | 42.98933 | 35006 ft | 455 kts | 348° |
| 2026-05-07 18:28 | 49.16423 | 42.97090 | 35012 ft | 458 kts | 348° |
| 2026-05-07 18:28 | 49.22693 | 42.95235 | 35005 ft | 457 kts | 348° |
| 2026-05-07 18:29 | 49.28929 | 42.93387 | 35011 ft | 459 kts | 348° |
| 2026-05-07 18:29 | 49.35124 | 42.91546 | 35011 ft | 446 kts | 348° |
| 2026-05-07 18:30 | 49.41219 | 42.89730 | 35013 ft | 444 kts | 348° |
| 2026-05-07 18:30 | 49.47306 | 42.87907 | 35014 ft | 446 kts | 348° |
| 2026-05-07 18:31 | 49.53435 | 42.86071 | 35012 ft | 449 kts | 348° |
| 2026-05-07 18:31 | 49.59560 | 42.84231 | 35019 ft | 451 kts | 348° |
| 2026-05-07 18:32 | 49.65713 | 42.82378 | 35017 ft | 452 kts | 348° |
| 2026-05-07 18:32 | 49.71878 | 42.80515 | 35018 ft | 451 kts | 348° |
| 2026-05-07 18:33 | 49.78083 | 42.78636 | 35014 ft | 454 kts | 348° |
| 2026-05-07 18:33 | 49.84291 | 42.76749 | 35016 ft | 453 kts | 348° |
| 2026-05-07 18:34 | 49.90423 | 42.74889 | 35019 ft | 454 kts | 348° |
| 2026-05-07 18:34 | 49.96631 | 42.73002 | 35006 ft | 454 kts | 348° |
| 2026-05-07 18:35 | 50.02839 | 42.71102 | 35000 ft | 454 kts | 348° |
| 2026-05-07 18:35 | 50.09026 | 42.69202 | 34998 ft | 454 kts | 348° |
| 2026-05-07 18:36 | 50.15233 | 42.67294 | 35000 ft | 454 kts | 348° |
| 2026-05-07 18:36 | 50.21450 | 42.65372 | 35112 ft | 456 kts | 348° |
| 2026-05-07 18:36 | 50.24532 | 42.64419 | 35442 ft | 453 kts | 348° |
| 2026-05-07 18:37 | 50.27610 | 42.63466 | 35768 ft | 450 kts | 348° |
| 2026-05-07 18:37 | 50.30673 | 42.62516 | 35970 ft | 450 kts | 348° |
| 2026-05-07 18:37 | 50.33719 | 42.61570 | 35993 ft | 451 kts | 348° |
| 2026-05-07 18:38 | 50.39852 | 42.59664 | 35994 ft | 447 kts | 348° |
| 2026-05-07 18:38 | 50.45921 | 42.57768 | 35999 ft | 450 kts | 348° |
| 2026-05-07 18:39 | 50.51976 | 42.55558 | 35989 ft | 447 kts | 338° |
| 2026-05-07 18:39 | 50.57529 | 42.51057 | 35986 ft | 449 kts | 329° |
| 2026-05-07 18:40 | 50.62869 | 42.45923 | 35987 ft | 450 kts | 328° |
| 2026-05-07 18:40 | 50.68180 | 42.40844 | 35988 ft | 450 kts | 329° |
| 2026-05-07 18:41 | 50.73596 | 42.35825 | 35983 ft | 451 kts | 330° |
| 2026-05-07 18:41 | 50.79022 | 42.30879 | 35981 ft | 449 kts | 329° |
| 2026-05-07 18:42 | 50.84434 | 42.25969 | 35976 ft | 450 kts | 329° |
| 2026-05-07 18:42 | 50.89835 | 42.21059 | 35980 ft | 450 kts | 329° |
| 2026-05-07 18:43 | 50.95275 | 42.16114 | 35977 ft | 451 kts | 329° |
| 2026-05-07 18:43 | 51.00706 | 42.11159 | 35974 ft | 451 kts | 329° |
| 2026-05-07 18:44 | 51.06127 | 42.06202 | 35968 ft | 451 kts | 329° |
| 2026-05-07 18:44 | 51.11550 | 42.01224 | 35964 ft | 451 kts | 329° |
| 2026-05-07 18:45 | 51.16962 | 41.96239 | 35969 ft | 451 kts | 329° |
| 2026-05-07 18:45 | 51.22375 | 41.91244 | 35967 ft | 451 kts | 329° |
| 2026-05-07 18:46 | 51.27808 | 41.86218 | 35961 ft | 451 kts | 329° |
| 2026-05-07 18:46 | 51.33240 | 41.81173 | 35960 ft | 450 kts | 329° |
| 2026-05-07 18:47 | 51.38640 | 41.76154 | 35963 ft | 450 kts | 329° |
| 2026-05-07 18:47 | 51.44058 | 41.71102 | 35957 ft | 450 kts | 329° |
| 2026-05-07 18:48 | 51.49432 | 41.66076 | 35960 ft | 449 kts | 329° |
| 2026-05-07 18:48 | 51.54805 | 41.61039 | 35957 ft | 450 kts | 329° |
| 2026-05-07 18:49 | 51.60204 | 41.55962 | 35957 ft | 448 kts | 329° |
| 2026-05-07 18:49 | 51.65597 | 41.50874 | 35958 ft | 448 kts | 329° |
| 2026-05-07 18:50 | 51.70980 | 41.45782 | 35962 ft | 448 kts | 329° |
| 2026-05-07 18:50 | 51.76355 | 41.40683 | 35963 ft | 448 kts | 329° |
| 2026-05-07 18:51 | 51.81704 | 41.35598 | 35960 ft | 448 kts | 329° |
| 2026-05-07 18:51 | 51.87041 | 41.30510 | 35957 ft | 447 kts | 328° |
| 2026-05-07 18:52 | 51.92405 | 41.25382 | 35961 ft | 448 kts | 328° |
| 2026-05-07 18:52 | 51.97751 | 41.20254 | 35958 ft | 447 kts | 328° |
| 2026-05-07 18:53 | 52.03104 | 41.15110 | 35956 ft | 447 kts | 328° |
| 2026-05-07 18:53 | 52.08427 | 41.09975 | 35954 ft | 447 kts | 328° |
| 2026-05-07 18:54 | 52.13758 | 41.04818 | 35955 ft | 447 kts | 328° |
| 2026-05-07 18:54 | 52.19106 | 40.99629 | 35940 ft | 447 kts | 328° |
| 2026-05-07 18:54 | 52.21779 | 40.97031 | 35732 ft | 448 kts | 328° |
| 2026-05-07 18:55 | 52.24450 | 40.94431 | 35504 ft | 446 kts | 328° |
| 2026-05-07 18:55 | 52.27090 | 40.91857 | 35270 ft | 444 kts | 328° |
| 2026-05-07 18:55 | 52.29770 | 40.89242 | 35037 ft | 445 kts | 328° |
| 2026-05-07 18:56 | 52.35062 | 40.84067 | 34956 ft | 445 kts | 329° |
| 2026-05-07 18:56 | 52.40369 | 40.78861 | 34951 ft | 447 kts | 329° |
| 2026-05-07 18:57 | 52.45698 | 40.73618 | 34957 ft | 446 kts | 329° |
| 2026-05-07 18:57 | 52.50972 | 40.68415 | 34956 ft | 446 kts | 329° |
| 2026-05-07 18:58 | 52.56294 | 40.63150 | 34957 ft | 445 kts | 329° |
| 2026-05-07 18:58 | 52.61536 | 40.57950 | 34956 ft | 445 kts | 329° |
| 2026-05-07 18:59 | 52.66849 | 40.52665 | 34960 ft | 445 kts | 329° |
| 2026-05-07 18:59 | 52.72156 | 40.47370 | 34956 ft | 445 kts | 329° |
| 2026-05-07 19:00 | 52.77436 | 40.42088 | 34959 ft | 446 kts | 329° |
| 2026-05-07 19:00 | 52.82706 | 40.36800 | 34955 ft | 446 kts | 329° |
| 2026-05-07 19:01 | 52.88050 | 40.31421 | 34950 ft | 447 kts | 328° |
| 2026-05-07 19:01 | 52.93343 | 40.26079 | 34955 ft | 446 kts | 328° |
| 2026-05-07 19:02 | 52.98584 | 40.20776 | 34952 ft | 445 kts | 328° |
| 2026-05-07 19:02 | 53.03862 | 40.15418 | 34947 ft | 445 kts | 328° |
| 2026-05-07 19:03 | 53.09151 | 40.10035 | 34948 ft | 445 kts | 328° |
| 2026-05-07 19:03 | 53.14423 | 40.04652 | 34951 ft | 446 kts | 328° |
| 2026-05-07 19:04 | 53.19709 | 39.99239 | 34946 ft | 447 kts | 328° |
| 2026-05-07 19:04 | 53.24984 | 39.93823 | 34941 ft | 445 kts | 328° |
| 2026-05-07 19:05 | 53.30231 | 39.88419 | 34937 ft | 445 kts | 328° |
| 2026-05-07 19:05 | 53.35498 | 39.82978 | 34944 ft | 444 kts | 328° |
| 2026-05-07 19:06 | 53.40728 | 39.77559 | 34946 ft | 445 kts | 328° |
| 2026-05-07 19:06 | 53.48613 | 39.69363 | 34944 ft | 445 kts | 328° |
| 2026-05-07 19:07 | 53.53848 | 39.63899 | 34947 ft | 445 kts | 328° |
| 2026-05-07 19:07 | 53.59079 | 39.58424 | 34943 ft | 443 kts | 328° |
| 2026-05-07 19:08 | 53.64330 | 39.52913 | 34940 ft | 444 kts | 328° |
| 2026-05-07 19:08 | 53.69529 | 39.47438 | 34939 ft | 443 kts | 328° |
| 2026-05-07 19:09 | 53.74759 | 39.41916 | 34943 ft | 444 kts | 328° |
| 2026-05-07 19:09 | 53.79987 | 39.36380 | 34943 ft | 443 kts | 328° |
| 2026-05-07 19:10 | 53.85187 | 39.30857 | 34939 ft | 443 kts | 328° |
| 2026-05-07 19:10 | 53.90412 | 39.25291 | 34939 ft | 443 kts | 328° |
| 2026-05-07 19:11 | 53.95596 | 39.19752 | 34940 ft | 443 kts | 328° |
| 2026-05-07 19:11 | 54.00794 | 39.14180 | 34937 ft | 441 kts | 328° |
| 2026-05-07 19:12 | 54.05974 | 39.08611 | 34935 ft | 441 kts | 328° |
| 2026-05-07 19:12 | 54.11134 | 39.03048 | 34937 ft | 440 kts | 328° |
| 2026-05-07 19:13 | 54.16312 | 38.97449 | 34935 ft | 441 kts | 328° |
| 2026-05-07 19:13 | 54.21514 | 38.91816 | 34938 ft | 449 kts | 328° |
| 2026-05-07 19:14 | 54.26998 | 38.86503 | 34912 ft | 456 kts | 332° |
| 2026-05-07 19:14 | 54.32589 | 38.81715 | 34438 ft | 441 kts | 334° |
| 2026-05-07 19:15 | 54.35313 | 38.79436 | 33903 ft | 437 kts | 334° |
| 2026-05-07 19:15 | 54.38048 | 38.77149 | 33342 ft | 434 kts | 334° |
| 2026-05-07 19:15 | 54.40718 | 38.74906 | 32758 ft | 432 kts | 334° |
| 2026-05-07 19:15 | 54.43402 | 38.72638 | 32248 ft | 428 kts | 334° |
| 2026-05-07 19:16 | 54.46048 | 38.70389 | 31668 ft | 425 kts | 333° |
| 2026-05-07 19:16 | 54.48679 | 38.68143 | 31121 ft | 422 kts | 333° |
| 2026-05-07 19:16 | 54.51294 | 38.65900 | 30557 ft | 420 kts | 333° |
| 2026-05-07 19:16 | 54.53879 | 38.63675 | 30012 ft | 417 kts | 333° |
| 2026-05-07 19:17 | 54.56422 | 38.61479 | 29510 ft | 413 kts | 333° |
| 2026-05-07 19:17 | 54.58977 | 38.59269 | 28955 ft | 411 kts | 333° |
| 2026-05-07 19:17 | 54.61513 | 38.57072 | 28388 ft | 408 kts | 333° |
| 2026-05-07 19:17 | 54.64028 | 38.54887 | 27844 ft | 406 kts | 333° |
| 2026-05-07 19:18 | 54.66547 | 38.52697 | 27302 ft | 403 kts | 332° |
| 2026-05-07 19:18 | 54.69018 | 38.50544 | 26742 ft | 401 kts | 332° |
| 2026-05-07 19:18 | 54.71480 | 38.48398 | 26228 ft | 398 kts | 332° |
| 2026-05-07 19:18 | 54.73960 | 38.46234 | 25646 ft | 396 kts | 332° |
| 2026-05-07 19:19 | 54.76406 | 38.44107 | 25112 ft | 394 kts | 332° |
| 2026-05-07 19:19 | 54.78819 | 38.42016 | 24593 ft | 391 kts | 332° |
| 2026-05-07 19:19 | 54.81245 | 38.39898 | 24031 ft | 389 kts | 330° |
| 2026-05-07 19:19 | 54.83577 | 38.37611 | 23528 ft | 385 kts | 326° |
| 2026-05-07 19:20 | 54.85728 | 38.35003 | 23033 ft | 380 kts | 319° |
| 2026-05-07 19:20 | 54.87704 | 38.32019 | 22558 ft | 375 kts | 314° |
| 2026-05-07 19:20 | 54.89557 | 38.28874 | 22055 ft | 372 kts | 311° |
| 2026-05-07 19:20 | 54.91347 | 38.25679 | 21590 ft | 368 kts | 311° |
| 2026-05-07 19:21 | 54.93095 | 38.22509 | 21081 ft | 366 kts | 310° |
| 2026-05-07 19:21 | 54.94848 | 38.19324 | 20607 ft | 363 kts | 310° |
| 2026-05-07 19:21 | 54.96590 | 38.16168 | 20116 ft | 360 kts | 310° |
| 2026-05-07 19:21 | 54.98291 | 38.13097 | 19957 ft | 354 kts | 310° |
| 2026-05-07 19:22 | 54.99997 | 38.10015 | 19935 ft | 357 kts | 310° |
| 2026-05-07 19:22 | 55.01730 | 38.06884 | 19923 ft | 359 kts | 310° |
| 2026-05-07 19:22 | 55.03461 | 38.03757 | 19928 ft | 359 kts | 310° |
| 2026-05-07 19:22 | 55.05191 | 38.00633 | 19924 ft | 358 kts | 310° |
| 2026-05-07 19:23 | 55.06898 | 37.97548 | 19923 ft | 357 kts | 310° |
| 2026-05-07 19:23 | 55.08614 | 37.94442 | 19921 ft | 358 kts | 310° |
| 2026-05-07 19:23 | 55.10355 | 37.91287 | 19925 ft | 359 kts | 310° |
| 2026-05-07 19:23 | 55.12065 | 37.88183 | 19916 ft | 357 kts | 310° |
| 2026-05-07 19:24 | 55.13771 | 37.85083 | 19911 ft | 358 kts | 310° |
| 2026-05-07 19:24 | 55.15516 | 37.81941 | 19902 ft | 359 kts | 312° |
| 2026-05-07 19:24 | 55.17347 | 37.79007 | 19924 ft | 361 kts | 316° |
| 2026-05-07 19:24 | 55.19319 | 37.76277 | 19921 ft | 362 kts | 319° |
| 2026-05-07 19:25 | 55.21351 | 37.73667 | 19927 ft | 363 kts | 321° |
| 2026-05-07 19:25 | 55.23395 | 37.71106 | 19924 ft | 363 kts | 321° |
| 2026-05-07 19:25 | 55.25437 | 37.68552 | 19915 ft | 361 kts | 320° |
| 2026-05-07 19:25 | 55.27465 | 37.65998 | 19919 ft | 362 kts | 320° |
| 2026-05-07 19:26 | 55.29514 | 37.63391 | 19657 ft | 366 kts | 320° |
| 2026-05-07 19:26 | 55.31544 | 37.60795 | 19127 ft | 364 kts | 320° |
| 2026-05-07 19:26 | 55.33572 | 37.58198 | 18635 ft | 361 kts | 320° |
| 2026-05-07 19:26 | 55.35610 | 37.55587 | 18087 ft | 358 kts | 320° |
| 2026-05-07 19:27 | 55.37581 | 37.53056 | 17593 ft | 356 kts | 320° |
| 2026-05-07 19:27 | 55.39560 | 37.50506 | 17105 ft | 353 kts | 320° |
| 2026-05-07 19:27 | 55.41520 | 37.47971 | 16609 ft | 350 kts | 319° |
| 2026-05-07 19:27 | 55.43486 | 37.45423 | 16114 ft | 348 kts | 320° |
| 2026-05-07 19:28 | 55.45408 | 37.42931 | 15631 ft | 345 kts | 319° |
| 2026-05-07 19:28 | 55.47312 | 37.40463 | 15271 ft | 339 kts | 320° |
| 2026-05-07 19:28 | 55.49210 | 37.38065 | 15034 ft | 331 kts | 322° |
| 2026-05-07 19:28 | 55.51221 | 37.36163 | 14780 ft | 329 kts | 336° |
| 2026-05-07 19:29 | 55.53455 | 37.35416 | 14540 ft | 329 kts | 353° |
| 2026-05-07 19:29 | 55.55708 | 37.35383 | 14289 ft | 323 kts | 356° |
| 2026-05-07 19:29 | 55.57962 | 37.35462 | 13831 ft | 324 kts | 356° |
| 2026-05-07 19:29 | 55.60185 | 37.35529 | 13340 ft | 325 kts | 356° |
| 2026-05-07 19:30 | 55.62439 | 37.35560 | 12853 ft | 326 kts | 356° |
| 2026-05-07 19:30 | 55.64709 | 37.35559 | 12365 ft | 326 kts | 355° |
| 2026-05-07 19:30 | 55.66964 | 37.35540 | 11883 ft | 327 kts | 355° |
| 2026-05-07 19:30 | 55.69234 | 37.35520 | 11396 ft | 328 kts | 355° |
| 2026-05-07 19:31 | 55.71522 | 37.35498 | 10900 ft | 328 kts | 355° |
| 2026-05-07 19:31 | 55.73763 | 37.35445 | 10417 ft | 328 kts | 354° |
| 2026-05-07 19:31 | 55.76047 | 37.35251 | 9985 ft | 325 kts | 352° |
| 2026-05-07 19:31 | 55.78233 | 37.34990 | 9896 ft | 310 kts | 351° |
| 2026-05-07 19:32 | 55.80354 | 37.34728 | 9897 ft | 299 kts | 350° |
| 2026-05-07 19:32 | 55.82400 | 37.34481 | 9896 ft | 291 kts | 350° |
| 2026-05-07 19:32 | 55.84365 | 37.34314 | 9892 ft | 277 kts | 352° |
| 2026-05-07 19:32 | 55.86258 | 37.34271 | 9892 ft | 264 kts | 353° |
| 2026-05-07 19:33 | 55.87083 | 37.34268 | 9891 ft | 257 kts | 353° |
| 2026-05-07 19:33 | 55.87870 | 37.34267 | 9889 ft | 251 kts | 353° |
| 2026-05-07 19:33 | 55.89563 | 37.34257 | 9768 ft | 244 kts | 353° |
| 2026-05-07 19:33 | 55.91282 | 37.34223 | 9332 ft | 251 kts | 353° |
| 2026-05-07 19:34 | 55.93057 | 37.34174 | 8851 ft | 259 kts | 353° |
| 2026-05-07 19:34 | 55.94864 | 37.34130 | 8370 ft | 266 kts | 353° |
| 2026-05-07 19:34 | 55.96744 | 37.34089 | 7873 ft | 273 kts | 353° |
| 2026-05-07 19:34 | 55.98641 | 37.34049 | 7384 ft | 278 kts | 353° |
| 2026-05-07 19:35 | 56.00596 | 37.34009 | 6888 ft | 283 kts | 353° |
| 2026-05-07 19:35 | 56.02574 | 37.33969 | 6392 ft | 287 kts | 353° |
| 2026-05-07 19:35 | 56.04571 | 37.33929 | 5900 ft | 291 kts | 353° |
| 2026-05-07 19:35 | 56.06599 | 37.34179 | 5407 ft | 299 kts | 5° |
| 2026-05-07 19:36 | 56.08530 | 37.35578 | 4990 ft | 309 kts | 34° |
| 2026-05-07 19:36 | 56.09822 | 37.38526 | 4888 ft | 300 kts | 68° |
| 2026-05-07 19:36 | 56.10137 | 37.42097 | 4883 ft | 281 kts | 98° |
| 2026-05-07 19:36 | 56.09694 | 37.45351 | 4881 ft | 260 kts | 115° |
| 2026-05-07 19:37 | 56.08882 | 37.48065 | 4879 ft | 240 kts | 133° |
| 2026-05-07 19:37 | 56.07820 | 37.50204 | 4872 ft | 218 kts | 141° |
| 2026-05-07 19:37 | 56.06809 | 37.52037 | 4879 ft | 198 kts | 141° |
| 2026-05-07 19:37 | 56.05924 | 37.53702 | 4928 ft | 176 kts | 141° |
| 2026-05-07 19:38 | 56.05078 | 37.55321 | 4935 ft | 176 kts | 141° |
| 2026-05-07 19:38 | 56.04250 | 37.56926 | 4884 ft | 174 kts | 141° |
| 2026-05-07 19:38 | 56.03418 | 37.58477 | 4889 ft | 172 kts | 147° |
| 2026-05-07 19:38 | 56.02414 | 37.59401 | 4883 ft | 158 kts | 181° |
| 2026-05-07 19:39 | 56.01354 | 37.59322 | 4899 ft | 149 kts | 199° |
| 2026-05-07 19:39 | 56.00404 | 37.58728 | 4887 ft | 140 kts | 219° |
| 2026-05-07 19:39 | 55.99725 | 37.57552 | 4899 ft | 136 kts | 239° |
| 2026-05-07 19:39 | 55.99338 | 37.56044 | 4850 ft | 137 kts | 253° |
| 2026-05-07 19:40 | 55.99075 | 37.54380 | 4437 ft | 142 kts | 254° |
| 2026-05-07 19:40 | 55.98812 | 37.52694 | 4001 ft | 144 kts | 255° |
| 2026-05-07 19:40 | 55.98552 | 37.50941 | 3552 ft | 147 kts | 256° |
| 2026-05-07 19:40 | 55.98288 | 37.49160 | 3096 ft | 156 kts | 257° |
| 2026-05-07 19:41 | 55.97948 | 37.46900 | 2902 ft | 213 kts | 257° |
| 2026-05-07 19:41 | 55.97604 | 37.44416 | 3120 ft | 194 kts | 256° |
| 2026-05-07 19:41 | 55.97306 | 37.42162 | 2957 ft | 188 kts | 259° |
| 2026-05-07 19:41 | 55.96999 | 37.39939 | 2790 ft | 175 kts | 258° |
| 2026-05-07 19:42 | 55.96683 | 37.37754 | 2706 ft | 192 kts | 252° |
| 2026-05-07 19:42 | 55.95968 | 37.35608 | 2725 ft | 208 kts | 227° |
| 2026-05-07 19:42 | 55.94745 | 37.34066 | 2726 ft | 218 kts | 212° |
| 2026-05-07 19:42 | 55.93384 | 37.32791 | 2694 ft | 222 kts | 213° |
| 2026-05-07 19:43 | 55.92027 | 37.31463 | 2731 ft | 222 kts | 212° |
| 2026-05-07 19:43 | 55.90704 | 37.30137 | 2731 ft | 226 kts | 214° |
| 2026-05-07 19:43 | 55.89302 | 37.28726 | 2722 ft | 235 kts | 213° |
| 2026-05-07 19:43 | 55.87883 | 37.27210 | 2722 ft | 238 kts | 219° |
| 2026-05-07 19:44 | 55.86780 | 37.25133 | 2713 ft | 232 kts | 244° |
| 2026-05-07 19:44 | 55.86375 | 37.22383 | 2733 ft | 233 kts | 269° |
| 2026-05-07 19:44 | 55.86546 | 37.19510 | 2728 ft | 233 kts | 282° |
| 2026-05-07 19:44 | 55.87086 | 37.16779 | 2731 ft | 234 kts | 292° |
| 2026-05-07 19:45 | 55.87777 | 37.14175 | 2726 ft | 235 kts | 294° |
| 2026-05-07 19:45 | 55.88512 | 37.11371 | 2747 ft | 268 kts | 292° |
| 2026-05-07 19:45 | 55.89326 | 37.08109 | 2729 ft | 307 kts | 292° |
| 2026-05-07 19:45 | 55.90198 | 37.04547 | 2726 ft | 325 kts | 292° |
| 2026-05-07 19:46 | 55.91243 | 37.00941 | 2731 ft | 331 kts | 300° |
| 2026-05-07 19:46 | 55.92781 | 36.97834 | 2726 ft | 336 kts | 317° |
| 2026-05-07 19:46 | 55.94675 | 36.95389 | 2728 ft | 341 kts | 323° |
| 2026-05-07 19:46 | 55.96727 | 36.93360 | 2722 ft | 342 kts | 335° |
| 2026-05-07 19:47 | 55.99075 | 36.92489 | 2721 ft | 351 kts | 354° |
| 2026-05-07 19:47 | 56.01531 | 36.92955 | 2721 ft | 360 kts | 12° |
| 2026-05-07 19:47 | 56.03824 | 36.94740 | 2721 ft | 363 kts | 28° |
| 2026-05-07 19:47 | 56.05932 | 36.97164 | 2721 ft | 365 kts | 32° |
| 2026-05-07 19:48 | 56.08009 | 36.99791 | 2723 ft | 364 kts | 33° |
| 2026-05-07 19:48 | 56.10022 | 37.02513 | 2686 ft | 368 kts | 40° |
| 2026-05-07 19:48 | 56.11718 | 37.05915 | 2389 ft | 366 kts | 53° |
| 2026-05-07 19:48 | 56.12811 | 37.09898 | 2244 ft | 349 kts | 71° |
| 2026-05-07 19:49 | 56.13430 | 37.13919 | 2217 ft | 328 kts | 75° |
| 2026-05-07 19:49 | 56.13896 | 37.17744 | 2215 ft | 298 kts | 77° |
| 2026-05-07 19:49 | 56.14305 | 37.21199 | 2227 ft | 271 kts | 76° |
| 2026-05-07 19:49 | 56.14710 | 37.24373 | 2233 ft | 248 kts | 75° |
| 2026-05-07 19:50 | 56.15099 | 37.27251 | 2217 ft | 229 kts | 75° |
| 2026-05-07 19:50 | 56.15465 | 37.29892 | 2221 ft | 213 kts | 73° |
| 2026-05-07 19:50 | 56.15815 | 37.32393 | 2247 ft | 197 kts | 74° |
| 2026-05-07 19:50 | 56.16123 | 37.34646 | 2262 ft | 178 kts | 78° |
| 2026-05-07 19:51 | 56.16316 | 37.36781 | 2225 ft | 174 kts | 87° |
| 2026-05-07 19:51 | 56.15992 | 37.38804 | 2228 ft | 167 kts | 138° |
| 2026-05-07 19:51 | 56.15035 | 37.39791 | 2280 ft | 160 kts | 162° |
| 2026-05-07 19:51 | 56.14091 | 37.40912 | 2227 ft | 162 kts | 141° |
| 2026-05-07 19:52 | 56.13315 | 37.42324 | 2247 ft | 155 kts | 140° |
| 2026-05-07 19:52 | 56.12529 | 37.43683 | 2254 ft | 158 kts | 142° |
| 2026-05-07 19:52 | 56.11723 | 37.45041 | 2256 ft | 160 kts | 141° |
| 2026-05-07 19:52 | 56.10905 | 37.46443 | 2237 ft | 161 kts | 141° |
| 2026-05-07 19:53 | 56.10097 | 37.47838 | 2254 ft | 159 kts | 141° |
| 2026-05-07 19:53 | 56.09294 | 37.49210 | 2240 ft | 162 kts | 141° |
| 2026-05-07 19:53 | 56.08463 | 37.50628 | 2146 ft | 163 kts | 141° |
| 2026-05-07 19:53 | 56.07661 | 37.52005 | 1809 ft | 161 kts | 140° |
| 2026-05-07 19:54 | 56.06871 | 37.53363 | 1565 ft | 153 kts | 139° |
| 2026-05-07 19:54 | 56.06109 | 37.54665 | 1526 ft | 150 kts | 139° |
| 2026-05-07 19:54 | 56.05320 | 37.56007 | 1607 ft | 159 kts | 139° |
| 2026-05-07 19:54 | 56.04525 | 37.57367 | 1318 ft | 159 kts | 138° |
| 2026-05-07 19:55 | 56.03785 | 37.58632 | 1160 ft | 147 kts | 137° |
| 2026-05-07 19:55 | 56.03019 | 37.59919 | 1242 ft | 150 kts | 141° |
| 2026-05-07 19:55 | 56.02111 | 37.60754 | 1234 ft | 152 kts | 173° |
| 2026-05-07 19:55 | 56.01186 | 37.60620 | 1244 ft | 150 kts | 197° |
| 2026-05-07 19:56 | 56.00225 | 37.59792 | 1237 ft | 149 kts | 220° |
| 2026-05-07 19:56 | 55.99651 | 37.58324 | 1245 ft | 148 kts | 249° |
| 2026-05-07 19:56 | 55.99382 | 37.56536 | 1239 ft | 148 kts | 255° |
| 2026-05-07 19:56 | 55.99115 | 37.54782 | 1240 ft | 149 kts | 253° |
| 2026-05-07 19:57 | 55.98846 | 37.52997 | 1238 ft | 148 kts | 255° |
| 2026-05-07 19:57 | 55.98589 | 37.51219 | 1241 ft | 148 kts | 255° |
| 2026-05-07 19:57 | 55.98320 | 37.49442 | 1238 ft | 149 kts | 253° |
| 2026-05-07 19:57 | 55.98053 | 37.47619 | 1016 ft | 151 kts | 255° |
| 2026-05-07 19:58 | 55.97789 | 37.45813 | 822 ft | 151 kts | 254° |
| 2026-05-07 19:58 | 55.97513 | 37.43985 | 659 ft | 155 kts | 253° |
| 2026-05-07 19:58 | 55.97254 | 37.42257 | 609 ft | 125 kts | 254° |
| 2026-05-07 19:58 | 55.97061 | 37.40978 | 614 ft | 91 kts | 254° |
| 2026-05-07 19:59 | 55.96957 | 37.40278 | 620 ft | 27 kts | 255° |
| 2026-05-07 19:59 | 55.96891 | 37.40093 | 624 ft | 16 kts | 181° |
| 2026-05-07 19:59 | 55.96801 | 37.40130 | 626 ft | 0 kts | 164° |
| 2026-05-07 20:00 | 55.96800 | 37.40131 | 627 ft | 1 kts | 164° |
| 2026-05-07 20:00 | 55.96775 | 37.40141 | 627 ft | 5 kts | 171° |
| 2026-05-07 20:00 | 55.96730 | 37.40138 | 628 ft | 7 kts | 185° |
| 2026-05-07 20:00 | 55.96679 | 37.40131 | 629 ft | 5 kts | 178° |
| 2026-05-07 20:01 | 55.96643 | 37.40145 | 630 ft | 6 kts | 163° |
| 2026-05-07 20:01 | 55.96594 | 37.40168 | 632 ft | 7 kts | 176° |
| 2026-05-07 20:01 | 55.96563 | 37.40150 | 633 ft | 4 kts | 216° |
| 2026-05-07 20:01 | 55.96543 | 37.40101 | 635 ft | 5 kts | 246° |
| 2026-05-07 20:02 | 55.96532 | 37.40042 | 637 ft | 7 kts | 253° |
| 2026-05-07 20:02 | 55.96499 | 37.39946 | 640 ft | 10 kts | 198° |
| 2026-05-07 20:02 | 55.96442 | 37.39995 | 639 ft | 9 kts | 94° |
| 2026-05-07 20:02 | 55.96460 | 37.40138 | 636 ft | 12 kts | 73° |
| 2026-05-07 20:03 | 55.96487 | 37.40221 | 635 ft | 8 kts | 53° |
| 2026-05-07 20:03 | 55.96506 | 37.40317 | 632 ft | 5 kts | 85° |
| 2026-05-07 20:03 | 55.96508 | 37.40332 | 632 ft | 1 kts | 52° |
| 2026-05-07 20:03 | 55.96519 | 37.40318 | 632 ft | 5 kts | 295° |
| 2026-05-07 20:04 | 55.96552 | 37.40255 | 632 ft | 9 kts | 333° |
| 2026-05-07 20:04 | 55.96616 | 37.40302 | 630 ft | 12 kts | 51° |
| 2026-05-07 20:04 | 55.96622 | 37.40351 | 630 ft | 1 kts | 113° |
| 2026-05-07 20:04 | 55.96631 | 37.40408 | 628 ft | 11 kts | 76° |
| 2026-05-07 20:05 | 55.96659 | 37.40598 | 624 ft | 16 kts | 70° |
| 2026-05-07 20:05 | 55.96650 | 37.40691 | 623 ft | 6 kts | 144° |
| 2026-05-07 20:05 | 55.96610 | 37.40724 | 623 ft | 0 kts | 162° |
| 2026-05-07 20:05 | 55.96605 | 37.40727 | 623 ft | 3 kts | 162° |
| 2026-05-07 20:06 | 55.96572 | 37.40718 | 623 ft | 6 kts | 207° |
| 2026-05-07 20:06 | 55.96544 | 37.40655 | 625 ft | 6 kts | 254° |
| 2026-05-07 20:06 | 55.96535 | 37.40591 | 627 ft | 2 kts | 255° |
| 2026-05-07 20:06 | 55.96534 | 37.40586 | 627 ft | 0 kts | 255° |